Time;durP1;ratioP1;P1;durP2;ratioP2;P2;SDS_P1;SDS_P2;PMS_P1;PMS_P2;Temp;Humidity;BMP_temperature;BMP_pressure;BME280_temperature;BME280_humidity;BME280_pressure;Samples;Min_cycle;Max_cycle;Signal;HPM_P1;HPM_P2
2022/04/04 00:00:11;;;;;;;11.15;8.18;;;2.30;99.90;;;;;;4984844;28;20469;-61
2022/04/04 00:02:37;;;;;;;10.20;6.97;;;2.40;99.90;;;;;;5002043;28;20018;-60
2022/04/04 00:05:04;;;;;;;10.63;7.60;;;2.40;99.90;;;;;;5001260;28;20431;-61
2022/04/04 00:07:29;;;;;;;9.02;7.38;;;2.40;99.90;;;;;;4977245;28;20498;-61
2022/04/04 00:09:55;;;;;;;8.85;7.50;;;2.20;99.90;;;;;;5001548;28;20061;-61
2022/04/04 00:12:21;;;;;;;10.30;7.10;;;2.30;99.90;;;;;;5000925;28;20014;-60
2022/04/04 00:14:48;;;;;;;10.05;7.32;;;2.40;99.90;;;;;;5000829;28;20022;-61
2022/04/04 00:17:14;;;;;;;9.73;7.20;;;2.30;99.90;;;;;;4999961;28;20029;-61
2022/04/04 00:19:39;;;;;;;10.25;7.20;;;2.30;99.90;;;;;;5003352;28;20441;-61
2022/04/04 00:22:05;;;;;;;11.55;7.80;;;2.40;99.90;;;;;;5003640;28;20014;-61
2022/04/04 00:24:32;;;;;;;10.90;7.38;;;2.30;99.90;;;;;;4998765;28;20034;-61
2022/04/04 00:26:58;;;;;;;8.05;6.38;;;2.30;99.90;;;;;;5000909;28;20105;-61
2022/04/04 00:29:24;;;;;;;10.57;6.45;;;2.20;99.90;;;;;;4985546;28;20076;-61
2022/04/04 00:31:51;;;;;;;9.65;6.45;;;2.20;99.90;;;;;;5002625;28;20037;-61
2022/04/04 00:34:16;;;;;;;9.02;6.53;;;2.20;99.90;;;;;;5002607;28;20592;-61
2022/04/04 00:36:43;;;;;;;10.35;6.72;;;2.30;99.90;;;;;;4998165;28;20049;-61
2022/04/04 00:39:15;;;;;;;9.02;6.80;;;2.40;99.90;;;;;;5000160;28;20462;-61
2022/04/04 00:41:44;;;;;;;11.40;6.93;;;2.50;99.90;;;;;;5000012;28;20119;-61
2022/04/04 00:44:10;;;;;;;8.60;6.00;;;2.50;99.90;;;;;;5003678;28;20083;-61
2022/04/04 00:46:41;;;;;;;10.90;6.43;;;2.30;99.90;;;;;;5002311;28;20108;-61
2022/04/04 00:49:07;;;;;;;7.78;6.03;;;2.50;99.90;;;;;;5001494;28;20089;-61
2022/04/04 00:51:33;;;;;;;9.15;6.20;;;2.50;99.90;;;;;;5000675;28;20926;-61
2022/04/04 00:53:59;;;;;;;10.40;6.30;;;2.50;99.90;;;;;;5003860;28;20026;-61
2022/04/04 00:56:30;;;;;;;9.07;5.50;;;2.50;99.90;;;;;;5004800;28;20490;-61
2022/04/04 00:58:56;;;;;;;9.57;6.10;;;2.50;99.90;;;;;;5004688;28;20104;-61
2022/04/04 01:01:22;;;;;;;7.55;6.05;;;2.40;99.90;;;;;;5004588;28;20066;-61
2022/04/04 01:03:48;;;;;;;9.90;6.20;;;2.30;99.90;;;;;;5005164;28;20075;-62
2022/04/04 01:06:13;;;;;;;9.07;6.38;;;2.20;99.90;;;;;;5003775;28;20491;-61
2022/04/04 01:08:39;;;;;;;9.55;6.53;;;2.30;99.90;;;;;;5002800;28;20022;-61
2022/04/04 01:11:05;;;;;;;8.10;6.43;;;2.30;99.90;;;;;;5004859;28;20101;-60
2022/04/04 01:13:31;;;;;;;8.40;6.10;;;2.40;99.90;;;;;;5002978;28;20026;-61
2022/04/04 01:15:56;;;;;;;9.20;6.22;;;2.30;99.90;;;;;;5005668;28;20057;-61
2022/04/04 01:18:22;;;;;;;8.73;6.57;;;2.40;99.90;;;;;;5004907;28;20089;-61
2022/04/04 01:20:49;;;;;;;8.82;6.35;;;2.50;99.90;;;;;;5001194;28;20033;-61
2022/04/04 01:23:25;;;;;;;10.32;5.97;;;2.40;99.90;;;;;;4986636;28;20061;-61
2022/04/04 01:25:51;;;;;;;8.13;5.72;;;2.30;99.90;;;;;;4999996;28;20022;-61
2022/04/04 01:28:17;;;;;;;10.88;6.65;;;2.30;99.90;;;;;;4999907;28;20019;-61
2022/04/04 01:30:47;;;;;;;8.63;6.20;;;2.30;99.90;;;;;;5000865;28;20117;-61
2022/04/04 01:33:13;;;;;;;10.10;6.47;;;2.30;99.90;;;;;;5004422;28;20037;-61
2022/04/04 01:35:39;;;;;;;12.88;7.07;;;2.40;99.90;;;;;;5004718;28;20022;-61
2022/04/04 01:38:04;;;;;;;9.80;6.53;;;2.50;99.90;;;;;;5000668;28;20025;-62
2022/04/04 01:40:30;;;;;;;12.55;7.20;;;2.60;99.90;;;;;;4999858;28;20093;-60
2022/04/04 01:42:56;;;;;;;8.75;6.45;;;2.60;99.90;;;;;;4998764;28;20281;-61
2022/04/04 01:48:08;;;;;;;11.55;6.60;;;2.70;99.90;;;;;;5002150;28;20048;-60
2022/04/04 01:50:34;;;;;;;10.05;6.82;;;2.60;99.90;;;;;;5003690;28;20028;-61
2022/04/04 01:55:44;;;;;;;10.88;7.53;;;2.60;99.90;;;;;;5002960;28;20092;-61
2022/04/04 01:58:10;;;;;;;10.05;6.68;;;2.70;99.90;;;;;;4989168;28;20025;-61
2022/04/04 02:00:36;;;;;;;12.40;6.75;;;2.60;99.90;;;;;;5003754;28;20030;-61
2022/04/04 02:03:01;;;;;;;9.70;6.40;;;2.70;99.90;;;;;;5000072;28;20042;-61
2022/04/04 02:05:27;;;;;;;11.85;7.25;;;2.80;99.90;;;;;;5001567;28;20034;-61
2022/04/04 02:07:52;;;;;;;10.85;7.07;;;2.90;99.90;;;;;;5001886;28;20018;-61
2022/04/04 02:10:18;;;;;;;10.35;7.40;;;2.80;99.90;;;;;;5001856;28;20083;-61
2022/04/04 02:12:43;;;;;;;11.85;7.68;;;2.80;99.90;;;;;;5002233;28;20393;-61
2022/04/04 02:15:09;;;;;;;12.02;7.20;;;2.90;99.90;;;;;;5001721;28;20022;-61
2022/04/04 02:17:34;;;;;;;11.13;7.60;;;2.90;99.90;;;;;;5003884;28;20056;-61
2022/04/04 02:20:00;;;;;;;11.00;7.97;;;2.90;99.90;;;;;;5005313;28;20390;-61
2022/04/04 02:22:25;;;;;;;11.77;8.15;;;2.90;99.90;;;;;;5001371;28;20549;-61
2022/04/04 02:24:51;;;;;;;11.60;7.55;;;3.00;99.90;;;;;;5005621;28;20029;-62
2022/04/04 02:27:18;;;;;;;12.75;8.40;;;2.90;99.90;;;;;;5003286;28;20081;-61
2022/04/04 02:29:43;;;;;;;14.32;9.18;;;2.90;99.90;;;;;;5003504;28;20059;-61
2022/04/04 02:32:09;;;;;;;15.32;8.85;;;3.00;99.90;;;;;;5000058;28;20034;-61
2022/04/04 02:34:35;;;;;;;12.80;8.48;;;3.00;99.90;;;;;;5000094;28;20034;-61
2022/04/04 02:37:01;;;;;;;14.40;8.10;;;3.00;99.90;;;;;;5000529;28;20390;-61
2022/04/04 02:39:26;;;;;;;10.55;8.05;;;3.00;99.90;;;;;;5003260;28;20429;-61
2022/04/04 02:41:52;;;;;;;12.55;8.52;;;2.90;99.90;;;;;;5003557;28;20112;-62
2022/04/04 02:44:18;;;;;;;11.15;8.05;;;2.90;99.90;;;;;;5000618;28;20017;-61
2022/04/04 02:46:43;;;;;;;14.05;8.13;;;2.90;99.90;;;;;;4989702;28;20056;-60
2022/04/04 02:49:09;;;;;;;13.05;8.40;;;3.00;99.90;;;;;;4999347;28;20428;-61
2022/04/04 02:51:34;;;;;;;13.63;8.35;;;3.00;99.90;;;;;;5004921;28;20033;-61
2022/04/04 02:54:00;;;;;;;12.27;8.07;;;3.10;99.90;;;;;;5004669;28;20410;-61
2022/04/04 02:56:29;;;;;;;11.50;7.80;;;3.00;99.90;;;;;;5004031;28;20085;-61
2022/04/04 02:58:55;;;;;;;12.43;8.00;;;3.00;99.90;;;;;;5004688;28;20022;-61
2022/04/04 03:01:22;;;;;;;13.43;8.02;;;3.00;99.90;;;;;;5004700;28;20049;-61
2022/04/04 03:03:48;;;;;;;10.23;7.97;;;3.00;99.90;;;;;;5004231;28;20025;-61
2022/04/04 03:06:14;;;;;;;10.30;7.57;;;3.00;99.90;;;;;;5002814;28;20285;-62
2022/04/04 03:08:40;;;;;;;13.48;7.88;;;2.90;99.90;;;;;;5003341;28;20473;-60
2022/04/04 03:11:06;;;;;;;12.93;8.52;;;2.90;99.90;;;;;;4999732;28;20030;-61
2022/04/04 03:13:31;;;;;;;11.88;7.97;;;2.90;99.90;;;;;;5004692;28;20021;-61
2022/04/04 03:15:57;;;;;;;11.52;7.88;;;2.90;99.90;;;;;;5002249;28;20429;-61
2022/04/04 03:18:23;;;;;;;11.80;8.15;;;2.80;99.90;;;;;;5002617;28;20022;-60
2022/04/04 03:20:49;;;;;;;12.20;8.27;;;3.00;99.90;;;;;;5002590;28;20037;-61
2022/04/04 03:23:15;;;;;;;11.50;7.80;;;2.90;99.90;;;;;;5004285;28;20026;-61
2022/04/04 03:25:40;;;;;;;12.05;8.23;;;2.90;99.90;;;;;;4999771;28;20940;-61
2022/04/04 03:28:06;;;;;;;12.43;8.05;;;2.90;99.90;;;;;;5003918;28;20029;-61
2022/04/04 03:30:32;;;;;;;13.23;8.18;;;3.00;99.90;;;;;;5001722;28;20030;-61
2022/04/04 03:32:58;;;;;;;13.77;8.25;;;3.00;99.90;;;;;;5003470;28;20037;-60
2022/04/04 03:35:28;;;;;;;12.80;8.23;;;3.10;99.90;;;;;;5001988;28;20033;-60
2022/04/04 03:37:56;;;;;;;10.93;8.25;;;3.00;99.90;;;;;;5002138;28;20037;-60
2022/04/04 03:40:23;;;;;;;10.82;7.85;;;3.00;99.90;;;;;;5001193;28;20062;-61
2022/04/04 03:42:52;;;;;;;14.02;8.38;;;3.10;99.90;;;;;;5000005;28;20029;-61
2022/04/04 03:45:19;;;;;;;12.73;8.30;;;3.10;99.90;;;;;;5003911;28;20076;-61
2022/04/04 03:47:45;;;;;;;10.70;7.38;;;3.10;99.90;;;;;;4989678;28;20057;-60
2022/04/04 03:50:13;;;;;;;10.45;7.78;;;3.00;99.90;;;;;;5003586;28;20643;-61
2022/04/04 03:52:40;;;;;;;12.23;7.68;;;3.00;99.90;;;;;;5002415;28;20539;-61
2022/04/04 03:55:07;;;;;;;11.98;7.90;;;3.10;99.90;;;;;;5003392;28;20564;-61
2022/04/04 03:57:33;;;;;;;11.13;7.30;;;3.10;99.90;;;;;;4998452;28;20492;-61
2022/04/04 03:59:59;;;;;;;12.90;8.50;;;3.20;99.90;;;;;;5003515;28;20017;-61
2022/04/04 04:02:25;;;;;;;12.23;7.25;;;3.20;99.90;;;;;;5000151;28;20426;-60
2022/04/04 04:04:50;;;;;;;12.57;7.25;;;3.10;99.90;;;;;;5002162;28;20037;-61
2022/04/04 04:07:18;;;;;;;14.63;7.85;;;3.00;99.90;;;;;;5001312;28;20049;-61
2022/04/04 04:09:44;;;;;;;12.13;7.30;;;3.00;99.90;;;;;;5002381;28;20458;-61
2022/04/04 04:12:15;;;;;;;9.90;7.68;;;3.10;99.90;;;;;;5001947;28;20033;-60
2022/04/04 04:14:41;;;;;;;10.57;7.70;;;3.10;99.90;;;;;;5000159;28;20026;-61
2022/04/04 04:17:08;;;;;;;10.07;7.47;;;3.10;99.90;;;;;;5002649;28;20034;-60
2022/04/04 04:22:21;;;;;;;13.82;8.38;;;3.10;99.90;;;;;;5002937;28;20705;-60
2022/04/04 04:24:48;;;;;;;12.07;8.43;;;3.10;99.90;;;;;;5002433;28;20026;-60
2022/04/04 04:27:14;;;;;;;10.07;7.57;;;3.10;99.90;;;;;;4999654;28;20417;-60
2022/04/04 04:29:39;;;;;;;11.35;8.65;;;3.10;99.90;;;;;;4992511;28;20030;-59
2022/04/04 04:32:07;;;;;;;11.93;7.85;;;3.20;99.90;;;;;;5007531;28;20026;-60
2022/04/04 04:34:34;;;;;;;13.05;8.85;;;3.20;99.90;;;;;;5005850;28;20525;-61
2022/04/04 04:37:00;;;;;;;13.90;9.10;;;3.10;99.90;;;;;;5001184;28;20470;-60
2022/04/04 04:39:26;;;;;;;12.85;8.63;;;3.20;99.90;;;;;;5007836;28;20018;-61
2022/04/04 04:41:52;;;;;;;12.75;9.30;;;3.10;99.90;;;;;;5006028;28;20116;-61
2022/04/04 04:44:18;;;;;;;16.92;9.50;;;3.20;99.90;;;;;;5007871;28;20109;-60
2022/04/04 04:46:44;;;;;;;13.88;9.27;;;3.30;99.90;;;;;;4986154;28;20455;-60
2022/04/04 04:49:10;;;;;;;14.77;9.65;;;3.30;99.90;;;;;;5004240;28;20022;-61
2022/04/04 04:51:36;;;;;;;13.77;9.60;;;3.20;99.90;;;;;;5007306;28;20105;-61
2022/04/04 04:54:03;;;;;;;13.07;9.20;;;3.30;99.90;;;;;;5006814;28;20069;-60
2022/04/04 04:56:29;;;;;;;14.50;9.23;;;3.30;99.90;;;;;;4989201;28;20030;-60
2022/04/04 04:58:55;;;;;;;16.83;9.70;;;3.40;99.90;;;;;;4987469;28;20108;-61
2022/04/04 05:01:20;;;;;;;16.33;10.07;;;3.20;99.90;;;;;;5005580;28;20128;-60
2022/04/04 05:03:46;;;;;;;15.48;9.88;;;3.20;99.90;;;;;;5004216;28;20040;-60
2022/04/04 05:06:12;;;;;;;13.85;9.75;;;3.20;99.90;;;;;;5001699;28;20450;-60
2022/04/04 05:08:37;;;;;;;17.48;9.40;;;3.30;99.90;;;;;;5003611;28;20030;-61
2022/04/04 05:11:03;;;;;;;16.92;9.82;;;3.30;99.90;;;;;;5005318;28;20098;-60
2022/04/04 05:13:29;;;;;;;17.55;10.68;;;3.30;99.90;;;;;;5006858;28;20473;-60
2022/04/04 05:15:54;;;;;;;16.95;10.68;;;3.40;99.90;;;;;;5000294;28;20105;-60
2022/04/04 05:18:21;;;;;;;19.10;10.32;;;3.30;99.90;;;;;;5003075;28;20045;-60
2022/04/04 05:20:47;;;;;;;18.45;10.18;;;3.30;99.90;;;;;;5001263;28;20560;-60
2022/04/04 05:23:13;;;;;;;18.02;9.68;;;3.40;99.90;;;;;;5002379;28;20489;-61
2022/04/04 05:25:40;;;;;;;16.17;10.50;;;3.40;99.90;;;;;;5005169;28;20117;-60
2022/04/04 05:28:07;;;;;;;18.77;10.45;;;3.40;99.90;;;;;;4987168;28;20026;-60
2022/04/04 05:30:34;;;;;;;17.00;10.65;;;3.40;99.90;;;;;;5004508;28;20056;-59
2022/04/04 05:33:00;;;;;;;17.45;10.68;;;3.40;99.90;;;;;;5000775;28;20037;-60
2022/04/04 05:35:26;;;;;;;17.85;10.30;;;3.40;99.90;;;;;;4985771;28;20045;-61
2022/04/04 05:37:55;;;;;;;17.63;10.25;;;3.50;99.90;;;;;;5001147;28;20366;-60
2022/04/04 05:40:29;;;;;;;21.67;10.90;;;3.40;99.90;;;;;;4999485;28;20029;-58
2022/04/04 05:42:55;;;;;;;20.65;11.18;;;3.40;99.90;;;;;;5003199;28;20026;-60
2022/04/04 05:45:22;;;;;;;19.10;10.07;;;3.60;99.90;;;;;;5004581;28;20047;-60
2022/04/04 05:47:47;;;;;;;19.65;10.07;;;3.60;99.90;;;;;;5004926;28;20022;-60
2022/04/04 05:50:13;;;;;;;17.85;9.95;;;3.60;99.90;;;;;;5005096;28;20021;-60
2022/04/04 05:52:39;;;;;;;14.52;9.18;;;3.50;99.90;;;;;;5002781;28;20394;-60
2022/04/04 05:55:06;;;;;;;16.17;10.02;;;3.60;99.90;;;;;;5003336;28;20061;-60
2022/04/04 05:57:35;;;;;;;15.30;9.00;;;3.70;99.90;;;;;;4998550;28;20040;-61
2022/04/04 06:00:00;;;;;;;17.33;9.05;;;3.70;99.90;;;;;;5001336;28;20493;-61
2022/04/04 06:02:29;;;;;;;15.10;8.75;;;3.70;99.90;;;;;;5003153;28;20104;-61
2022/04/04 06:04:55;;;;;;;15.57;9.15;;;3.60;99.90;;;;;;5002492;28;20516;-60
2022/04/04 06:07:21;;;;;;;16.42;9.20;;;3.70;99.90;;;;;;5002137;28;20413;-60
2022/04/04 06:09:47;;;;;;;15.45;9.15;;;3.60;99.90;;;;;;4989140;28;20022;-58
2022/04/04 06:12:13;;;;;;;16.50;9.13;;;3.70;99.90;;;;;;5000854;28;20023;-62
2022/04/04 06:14:38;;;;;;;19.42;9.10;;;3.80;99.90;;;;;;5004767;28;20517;-61
2022/04/04 06:17:05;;;;;;;14.50;8.82;;;3.80;99.90;;;;;;4998339;28;20088;-61
2022/04/04 06:19:34;;;;;;;15.45;8.80;;;3.90;99.90;;;;;;5004641;28;20101;-61
2022/04/04 06:22:04;;;;;;;20.33;9.38;;;3.90;99.90;;;;;;4997989;28;20111;-61
2022/04/04 06:24:31;;;;;;;17.63;8.60;;;3.90;99.90;;;;;;5004618;28;20029;-61
2022/04/04 06:27:00;;;;;;;14.43;9.25;;;3.90;99.90;;;;;;5000710;28;20034;-60
2022/04/04 06:29:26;;;;;;;12.65;8.63;;;4.00;99.90;;;;;;5001540;28;20040;-61
2022/04/04 06:31:51;;;;;;;15.98;9.27;;;4.20;99.90;;;;;;5001861;28;20022;-61
2022/04/04 06:34:18;;;;;;;17.83;9.63;;;4.40;99.90;;;;;;5001277;28;20098;-61
2022/04/04 06:36:44;;;;;;;15.35;8.73;;;4.40;99.90;;;;;;5001437;28;20055;-58
2022/04/04 06:39:10;;;;;;;15.27;9.38;;;4.60;99.90;;;;;;5001912;28;20423;-61
2022/04/04 06:41:36;;;;;;;14.27;8.82;;;;;;;;;;5004097;28;20025;-61
2022/04/04 06:44:03;;;;;;;13.45;8.93;;;4.90;99.90;;;;;;5003441;28;20042;-61
2022/04/04 06:46:29;;;;;;;13.50;8.73;;;4.80;99.90;;;;;;4999636;28;20421;-61
2022/04/04 06:48:54;;;;;;;17.35;9.07;;;4.80;99.90;;;;;;4997871;28;20038;-60
2022/04/04 06:51:21;;;;;;;15.48;9.32;;;4.90;99.90;;;;;;4987943;28;20018;-60
2022/04/04 06:53:47;;;;;;;15.70;8.80;;;4.90;99.90;;;;;;5004318;28;20018;-60
2022/04/04 06:56:13;;;;;;;17.17;9.02;;;5.10;99.90;;;;;;5001208;28;20053;-61
2022/04/04 06:58:39;;;;;;;13.55;8.43;;;5.10;99.90;;;;;;5004761;28;20058;-61
2022/04/04 07:01:04;;;;;;;14.85;8.75;;;5.20;99.90;;;;;;4999934;28;20376;-61
2022/04/04 07:03:30;;;;;;;15.68;9.50;;;5.20;99.90;;;;;;5000688;28;20034;-61
2022/04/04 07:05:56;;;;;;;14.63;8.55;;;5.30;99.90;;;;;;4999073;28;20045;-59
2022/04/04 07:08:21;;;;;;;17.08;8.65;;;5.30;99.90;;;;;;5003435;28;20017;-60
2022/04/04 07:10:48;;;;;;;14.48;8.50;;;5.40;99.90;;;;;;5000862;28;20054;-58
2022/04/04 07:13:14;;;;;;;15.27;9.55;;;5.40;99.90;;;;;;4999448;28;20046;-60
2022/04/04 07:15:41;;;;;;;14.85;9.25;;;5.50;99.90;;;;;;5001130;28;20030;-60
2022/04/04 07:18:07;;;;;;;13.00;8.38;;;5.50;99.90;;;;;;4999753;28;20485;-61
2022/04/04 07:20:35;;;;;;;15.52;9.02;;;;;;;;;;5000885;28;20473;-61
2022/04/04 07:23:01;;;;;;;17.08;9.10;;;5.40;99.90;;;;;;5001340;28;20165;-60
2022/04/04 07:25:28;;;;;;;13.63;8.45;;;5.70;99.90;;;;;;5002733;28;20054;-61
2022/04/04 07:27:56;;;;;;;12.55;8.95;;;5.90;99.90;;;;;;4999521;28;20041;-61
2022/04/04 07:30:23;;;;;;;13.30;8.32;;;5.30;99.90;;;;;;4989413;28;20018;-61
2022/04/04 07:32:50;;;;;;;13.55;8.63;;;5.50;99.90;;;;;;5000972;28;20477;-61
2022/04/04 07:35:16;;;;;;;14.45;8.57;;;;;;;;;;5002225;28;20040;-61
2022/04/04 07:37:44;;;;;;;11.70;8.68;;;;;;;;;;5000578;28;20022;-60
2022/04/04 07:40:15;;;;;;;12.65;8.68;;;5.90;99.90;;;;;;5002059;28;20022;-60
2022/04/04 07:42:45;;;;;;;16.55;8.40;;;5.90;99.90;;;;;;5001729;28;20025;-61
2022/04/04 07:45:13;;;;;;;15.90;8.82;;;6.10;99.90;;;;;;5000581;28;20033;-61
2022/04/04 07:47:42;;;;;;;12.80;8.95;;;6.00;99.90;;;;;;5003013;28;20014;-61
2022/04/04 07:50:13;;;;;;;13.52;8.57;;;6.30;99.90;;;;;;5001718;28;20121;-60
2022/04/04 07:52:40;;;;;;;12.23;8.75;;;;;;;;;;5003366;28;20018;-60
2022/04/04 07:55:09;;;;;;;13.18;8.45;;;;;;;;;;4997653;28;20469;-60
2022/04/04 07:57:37;;;;;;;12.57;8.65;;;6.30;99.90;;;;;;4992301;28;20463;-61
2022/04/04 08:00:06;;;;;;;13.52;8.77;;;;;;;;;;5002591;28;20482;-60
2022/04/04 08:02:34;;;;;;;10.95;7.82;;;;;;;;;;4999448;28;20033;-61
2022/04/04 08:05:04;;;;;;;13.38;8.75;;;;;;;;;;5002347;28;20033;-60
2022/04/04 08:07:30;;;;;;;13.48;9.40;;;;;;;;;;4999743;28;20041;-60
2022/04/04 08:09:57;;;;;;;15.23;8.35;;;;;;;;;;5001512;28;20018;-60
2022/04/04 08:12:31;;;;;;;13.85;8.63;;;;;;;;;;4980710;28;20053;-61
2022/04/04 08:15:00;;;;;;;14.32;8.65;;;;;;;;;;5002794;28;20030;-60
2022/04/04 08:17:27;;;;;;;14.50;8.25;;;;;;;;;;5002336;28;20021;-61
2022/04/04 08:19:53;;;;;;;13.32;8.48;;;;;;;;;;4999491;28;20041;-61
2022/04/04 08:22:22;;;;;;;13.45;8.50;;;6.80;99.90;;;;;;5001569;28;20521;-61
2022/04/04 08:24:51;;;;;;;11.48;7.95;;;;;;;;;;5001644;28;20028;-62
2022/04/04 08:27:18;;;;;;;12.73;8.65;;;;;;;;;;4998637;28;20119;-61
2022/04/04 08:29:45;;;;;;;12.07;8.35;;;6.90;99.90;;;;;;5002497;28;20426;-61
2022/04/04 08:32:11;;;;;;;11.13;7.88;;;7.10;99.90;;;;;;5000995;28;20080;-62
2022/04/04 08:34:37;;;;;;;13.32;8.43;;;7.30;99.90;;;;;;5002644;28;20038;-61
2022/04/04 08:37:03;;;;;;;11.73;7.68;;;;;;;;;;4997864;28;20033;-62
2022/04/04 08:39:29;;;;;;;12.48;7.47;;;;;;;;;;5001845;28;20042;-61
2022/04/04 08:41:56;;;;;;;12.50;7.68;;;7.30;99.90;;;;;;5001058;28;20061;-61
2022/04/04 08:44:21;;;;;;;15.57;7.53;;;7.40;99.90;;;;;;4987049;28;20037;-61
2022/04/04 08:46:48;;;;;;;10.88;7.40;;;;;;;;;;4999901;28;20281;-60
2022/04/04 08:49:14;;;;;;;12.70;7.30;;;7.30;99.90;;;;;;5001650;28;20018;-60
2022/04/04 08:51:41;;;;;;;11.48;7.15;;;7.10;99.90;;;;;;5002964;28;20037;-60
2022/04/04 08:54:08;;;;;;;11.23;7.20;;;;;;;;;;5002775;28;20420;-60
2022/04/04 08:56:34;;;;;;;11.45;7.57;;;7.60;99.90;;;;;;5001157;28;20053;-61
2022/04/04 08:59:01;;;;;;;10.70;6.70;;;;;;;;;;5002297;28;20050;-60
2022/04/04 09:01:28;;;;;;;9.77;6.95;;;;;;;;;;4985349;28;20022;-61
2022/04/04 09:04:01;;;;;;;10.88;7.30;;;;;;;;;;4999970;28;20045;-61
2022/04/04 09:06:28;;;;;;;10.02;6.90;;;7.40;99.90;;;;;;4999790;28;20496;-60
2022/04/04 09:08:55;;;;;;;13.75;6.95;;;7.40;99.90;;;;;;4997137;28;20014;-60
2022/04/04 09:11:21;;;;;;;12.13;7.38;;;7.50;99.90;;;;;;5000970;28;20072;-61
2022/04/04 09:14:08;;;;;;;13.88;7.70;;;7.50;99.90;;;;;;5001444;28;20026;-61
2022/04/04 09:16:34;;;;;;;10.77;6.57;;;7.70;99.90;;;;;;5004815;28;20088;-62
2022/04/04 09:19:00;;;;;;;10.10;7.30;;;7.50;99.90;;;;;;5003467;28;20030;-62
2022/04/04 09:21:25;;;;;;;11.73;7.72;;;7.40;99.90;;;;;;5004290;28;20033;-61
2022/04/04 09:23:56;;;;;;;14.40;7.75;;;7.30;99.90;;;;;;5001666;28;20022;-60
2022/04/04 09:26:42;;;;;;;12.60;7.30;;;7.40;99.90;;;;;;5001999;28;20038;-60
2022/04/04 09:29:22;;;;;;;11.63;7.75;;;7.30;99.90;;;;;;5002389;28;20655;-61
2022/04/04 09:32:15;;;;;;;13.43;8.35;;;7.30;99.90;;;;;;5003874;28;20030;-61
2022/04/04 09:35:04;;;;;;;12.63;8.43;;;7.30;99.90;;;;;;5000805;28;20033;-61
2022/04/04 09:37:32;;;;;;;13.35;9.18;;;7.20;99.90;;;;;;4984214;28;20034;-62
2022/04/04 09:40:19;;;;;;;12.65;8.80;;;7.30;99.90;;;;;;5003977;28;20026;-61
2022/04/04 09:42:53;;;;;;;13.80;8.70;;;7.10;99.90;;;;;;5004045;28;20065;-61
2022/04/04 09:45:25;;;;;;;21.00;9.45;;;7.10;99.90;;;;;;5004807;28;20053;-62
2022/04/04 09:47:53;;;;;;;17.25;9.77;;;7.10;99.90;;;;;;5006010;28;20108;-61
2022/04/04 09:50:42;;;;;;;14.18;9.88;;;7.00;99.90;;;;;;5004733;28;20050;-62
2022/04/04 09:53:11;;;;;;;14.73;9.98;;;7.00;99.90;;;;;;5004962;28;20025;-62
2022/04/04 09:55:39;;;;;;;16.13;10.00;;;7.00;99.90;;;;;;4986558;28;20045;-63
2022/04/04 09:58:07;;;;;;;15.98;9.70;;;7.00;99.90;;;;;;5003166;28;20049;-63
2022/04/04 10:00:36;;;;;;;14.25;9.40;;;6.50;99.90;;;;;;5004560;28;20720;-62
2022/04/04 10:03:04;;;;;;;14.32;9.82;;;7.00;99.90;;;;;;5003924;28;20030;-64
2022/04/04 10:05:31;;;;;;;13.15;9.18;;;7.00;99.90;;;;;;5002872;28;20507;-63
2022/04/04 10:07:58;;;;;;;14.55;9.65;;;7.10;99.90;;;;;;5001002;28;20025;-61
2022/04/04 10:10:31;;;;;;;15.75;10.00;;;;;;;;;;4984629;28;20464;-61
2022/04/04 10:12:58;;;;;;;13.23;9.57;;;7.20;99.90;;;;;;5004019;28;20033;-62
2022/04/04 10:15:25;;;;;;;14.45;9.40;;;7.20;99.90;;;;;;5004899;28;20037;-62
2022/04/04 10:17:52;;;;;;;14.10;9.15;;;7.20;99.90;;;;;;5003026;28;20048;-62
2022/04/04 10:20:19;;;;;;;16.20;9.65;;;7.30;99.90;;;;;;5002983;28;20026;-61
2022/04/04 10:22:47;;;;;;;14.30;9.93;;;7.40;99.90;;;;;;5000322;28;20431;-62
2022/04/04 10:25:15;;;;;;;14.32;9.45;;;7.20;99.90;;;;;;5001518;28;20033;-63
2022/04/04 10:27:46;;;;;;;14.73;9.82;;;7.20;99.90;;;;;;5002716;28;20497;-62
2022/04/04 10:30:12;;;;;;;12.15;10.13;;;7.20;99.90;;;;;;5000319;28;20026;-62
2022/04/04 10:32:52;;;;;;;17.60;10.48;;;7.10;99.90;;;;;;4999201;28;20022;-63
2022/04/04 10:35:23;;;;;;;14.10;10.20;;;7.10;99.90;;;;;;4999775;28;20057;-62
2022/04/04 10:37:50;;;;;;;12.68;10.05;;;7.00;99.90;;;;;;4999816;28;20174;-62
2022/04/04 10:40:29;;;;;;;16.17;11.27;;;6.90;99.90;;;;;;5001814;28;20250;-63
2022/04/04 10:43:07;;;;;;;20.58;12.20;;;6.80;99.90;;;;;;5001789;28;20021;-65
2022/04/04 10:46:00;;;;;;;18.80;12.80;;;6.80;99.90;;;;;;4996806;28;20100;-65
2022/04/04 10:48:31;;;;;;;19.55;12.18;;;6.80;99.90;;;;;;5002838;28;20018;-64
2022/04/04 10:51:17;;;;;;;16.83;12.52;;;6.60;99.90;;;;;;5002775;28;20022;-62
2022/04/04 10:53:48;;;;;;;18.00;13.35;;;6.50;99.90;;;;;;4998927;28;20018;-62
2022/04/04 10:56:23;;;;;;;18.85;13.65;;;6.60;99.90;;;;;;4999909;28;20064;-64
2022/04/04 10:58:51;;;;;;;20.52;14.40;;;;;;;;;;4999244;28;20121;-64
2022/04/04 11:01:19;;;;;;;17.88;14.57;;;;;;;;;;4998207;28;20088;-64
2022/04/04 11:03:59;;;;;;;21.88;15.30;;;;;;;;;;5000711;28;20110;-63
2022/04/04 11:09:32;;;;;;;15.13;11.77;;;;;;;;;;5001555;28;20045;-64
2022/04/04 11:12:08;;;;;;;22.67;14.93;;;;;;;;;;4982359;28;20025;-63
2022/04/04 11:14:41;;;;;;;20.02;13.80;;;6.20;99.90;;;;;;5000108;28;20477;-64
2022/04/04 11:20:31;;;;;;;21.40;15.10;;;6.20;99.90;;;;;;4983187;28;20206;-65
2022/04/04 11:22:57;;;;;;;21.83;16.05;;;6.20;99.90;;;;;;5001324;28;20493;-63
2022/04/04 11:25:29;;;;;;;19.63;14.20;;;6.10;99.90;;;;;;5001662;28;20153;-62
2022/04/04 11:27:57;;;;;;;20.63;15.43;;;;;;;;;;5001977;28;20011;-65
2022/04/04 11:30:25;;;;;;;19.42;14.85;;;6.20;99.90;;;;;;4983201;28;20385;-62
2022/04/04 11:32:57;;;;;;;19.83;15.50;;;5.70;99.90;;;;;;5004163;28;20025;-66
2022/04/04 11:35:27;;;;;;;18.60;14.07;;;6.20;99.90;;;;;;4998603;28;20532;-64
2022/04/04 11:37:59;;;;;;;17.42;13.90;;;;;;;;;;5001273;28;20022;-65
2022/04/04 11:40:35;;;;;;;19.23;13.63;;;;;;;;;;4988566;28;20029;-63
2022/04/04 11:43:03;;;;;;;17.13;13.45;;;;;;;;;;5001844;28;20041;-65
2022/04/04 11:45:33;;;;;;;15.20;13.10;;;;;;;;;;5001815;28;20482;-64
2022/04/04 11:48:03;;;;;;;17.27;13.50;;;;;;;;;;5001984;28;20116;-66
2022/04/04 11:50:30;;;;;;;16.90;12.98;;;;;;;;;;5002588;28;20105;-65
2022/04/04 11:53:04;;;;;;;14.57;11.73;;;;;;;;;;5000519;28;20101;-64
2022/04/04 11:55:31;;;;;;;14.95;11.55;;;;;;;;;;4985565;28;20052;-65
2022/04/04 11:57:58;;;;;;;16.15;12.38;;;;;;;;;;5001185;28;20081;-63
2022/04/04 12:00:26;;;;;;;14.52;11.90;;;;;;;;;;5003459;28;20457;-63
2022/04/04 12:02:52;;;;;;;16.15;12.85;;;;;;;;;;5003515;28;20030;-63
2022/04/04 12:05:23;;;;;;;17.25;12.07;;;;;;;;;;4984567;28;20030;-62
2022/04/04 12:07:49;;;;;;;17.50;13.20;;;;;;;;;;4999419;28;20148;-64
2022/04/04 12:10:24;;;;;;;18.08;13.00;;;;;;;;;;4992899;28;20022;-63
2022/04/04 12:12:56;;;;;;;15.13;12.75;;;;;;;;;;5001161;28;20036;-63
2022/04/04 12:15:27;;;;;;;13.20;10.30;;;;;;;;;;5001734;28;20037;-63
2022/04/04 12:17:53;;;;;;;16.58;12.20;;;;;;;;;;5002999;28;20529;-64
2022/04/04 12:20:19;;;;;;;15.85;11.68;;;;;;;;;;5002870;28;20466;-63
2022/04/04 12:25:30;;;;;;;14.77;11.60;;;;;;;;;;5002546;28;20064;-62
2022/04/04 12:27:57;;;;;;;14.73;11.35;;;;;;;;;;5000117;28;20465;-65
2022/04/04 12:30:36;;;;;;;15.18;11.20;;;;;;;;;;4984220;28;20034;-62
2022/04/04 12:33:09;;;;;;;15.80;11.77;;;;;;;;;;5001635;28;20119;-64
2022/04/04 12:35:35;;;;;;;;;;;;;;;;;;5003338;28;20478;-62
2022/04/04 12:38:01;;;;;;;13.55;11.25;;;;;;;;;;4982678;28;20043;-62
2022/04/04 12:40:27;;;;;;;17.00;11.57;;;;;;;;;;4984639;28;20401;-64
2022/04/04 12:43:04;;;;;;;16.20;12.10;;;;;;;;;;5003105;28;20157;-61
2022/04/04 12:45:34;;;;;;;15.15;12.15;;;;;;;;;;5000871;28;20034;-63
2022/04/04 12:48:01;;;;;;;15.82;11.55;;;;;;;;;;5002671;28;20048;-63
2022/04/04 12:50:37;;;;;;;14.68;11.88;;;;;;;;;;5005509;28;20134;-65
2022/04/04 12:53:03;;;;;;;15.88;12.90;;;;;;;;;;5005961;28;20045;-63
2022/04/04 12:55:29;;;;;;;15.55;12.50;;;;;;;;;;5005314;28;20466;-63
2022/04/04 12:57:56;;;;;;;16.25;11.15;;;;;;;;;;5006661;28;20167;-62
2022/04/04 13:00:29;;;;;;;14.73;12.13;;;;;;;;;;5005773;28;20685;-62
2022/04/04 13:02:56;;;;;;;14.95;12.07;;;;;;;;;;5002891;28;20615;-63
2022/04/04 13:05:26;;;;;;;15.80;13.15;;;;;;;;;;5001145;28;20018;-63
2022/04/04 13:07:52;;;;;;;15.65;12.45;;;;;;;;;;5004343;28;20542;-62
2022/04/04 13:10:18;;;;;;;15.07;12.35;;;;;;;;;;5005542;28;20104;-62
2022/04/04 13:12:45;;;;;;;15.57;12.25;;;;;;;;;;4987186;28;20034;-62
2022/04/04 13:15:11;;;;;;;16.52;13.02;;;;;;;;;;5003641;28;21097;-63
2022/04/04 13:17:41;;;;;;;14.77;12.73;;;;;;;;;;5004313;28;20022;-64
2022/04/04 13:20:12;;;;;;;14.88;12.82;;;;;;;;;;5002987;28;20026;-61
2022/04/04 13:22:42;;;;;;;18.10;12.55;;;;;;;;;;5003726;28;20477;-64
2022/04/04 13:25:08;;;;;;;13.30;11.85;;;;;;;;;;5004107;28;20022;-61
2022/04/04 13:27:35;;;;;;;14.43;12.15;;;;;;;;;;5002739;28;20029;-64